Time,TemperatureF,DewpointF,PressureIn,WindDirection,WindDirectionDegrees,WindSpeedMPH,WindSpeedGustMPH,Humidity,HourlyPrecipIn,Conditions,Clouds,dailyrainin,SoftwareType,DateUTC
2013-02-07 00:00:00,43.8,38.4,30.07,West,270,0.0,0.0,81,0.00,,---,0.00,VWS V12.07,2013-02-07 08:00:00,
2013-02-07 00:10:00,43.6,38.2,30.07,West,270,0.0,0.0,81,0.00,,---,0.00,VWS V12.07,2013-02-07 08:10:00,
2013-02-07 00:15:00,43.5,38.1,30.07,West,270,0.0,0.0,81,0.00,,---,0.00,VWS V12.07,2013-02-07 08:15:00,
2013-02-07 00:25:00,43.3,38.2,30.07,West,270,0.0,0.0,82,0.00,,---,0.00,VWS V12.07,2013-02-07 08:25:00,
2013-02-07 00:30:00,43.2,38.1,30.07,West,270,0.0,0.0,82,0.00,,---,0.00,VWS V12.07,2013-02-07 08:30:00,
2013-02-07 00:40:00,43.1,38.0,30.07,West,270,0.0,0.0,82,0.00,,---,0.00,VWS V12.07,2013-02-07 08:40:00,
2013-02-07 00:45:00,42.9,37.8,30.07,West,270,0.0,0.0,82,0.00,,---,0.00,VWS V12.07,2013-02-07 08:45:00,
2013-02-07 00:50:00,42.9,37.8,30.07,West,270,0.0,0.0,82,0.00,,---,0.00,VWS V12.07,2013-02-07 08:50:00,
2013-02-07 00:55:00,42.8,37.7,30.07,West,270,0.0,0.0,82,0.00,,---,0.00,VWS V12.07,2013-02-07 08:55:00,
2013-02-07 01:05:00,42.6,37.5,30.07,West,270,0.0,0.0,82,0.00,,---,0.00,VWS V12.07,2013-02-07 09:05:00,
2013-02-07 01:10:00,42.5,37.4,30.07,West,270,0.0,0.0,82,0.00,,---,0.00,VWS V12.07,2013-02-07 09:10:00,
2013-02-07 01:15:00,42.3,37.2,30.07,West,270,0.0,0.0,82,0.00,,---,0.00,VWS V12.07,2013-02-07 09:15:00,
2013-02-07 01:20:00,42.3,37.2,30.07,West,270,0.0,0.0,82,0.00,,---,0.00,VWS V12.07,2013-02-07 09:20:00,
2013-02-07 01:30:00,42.2,37.4,30.07,West,270,0.0,0.0,83,0.00,,---,0.00,VWS V12.07,2013-02-07 09:30:00,
2013-02-07 01:40:00,42.2,37.4,30.07,West,270,0.0,0.0,83,0.00,,---,0.00,VWS V12.07,2013-02-07 09:40:00,
2013-02-07 01:45:00,42.1,37.3,30.07,West,270,0.0,0.0,83,0.00,,---,0.00,VWS V12.07,2013-02-07 09:45:00,
2013-02-07 01:50:00,42.1,37.3,30.07,West,270,0.0,0.0,83,0.00,,---,0.00,VWS V12.07,2013-02-07 09:50:00,
2013-02-07 01:55:00,41.9,37.1,30.06,West,270,0.0,0.0,83,0.00,,---,0.00,VWS V12.07,2013-02-07 09:55:00,
2013-02-07 02:00:00,41.9,37.1,30.06,West,270,0.0,0.0,83,0.00,,---,0.00,VWS V12.07,2013-02-07 10:00:00,
2013-02-07 02:05:00,41.9,37.1,30.06,West,270,0.0,0.0,83,0.00,,---,0.00,VWS V12.07,2013-02-07 10:05:00,
2013-02-07 02:10:00,41.8,37.0,30.06,West,270,0.0,0.0,83,0.00,,---,0.00,VWS V12.07,2013-02-07 10:10:00,
2013-02-07 02:15:00,41.8,37.0,30.06,West,270,0.0,0.0,83,0.00,,---,0.00,VWS V12.07,2013-02-07 10:15:00,
2013-02-07 02:25:00,41.6,36.8,30.06,West,270,0.0,0.0,83,0.00,,---,0.00,VWS V12.07,2013-02-07 10:25:00,
2013-02-07 02:30:00,41.5,36.7,30.06,West,270,0.0,0.0,83,0.00,,---,0.00,VWS V12.07,2013-02-07 10:30:00,
2013-02-07 02:40:00,41.3,36.5,30.06,West,270,0.0,0.0,83,0.00,,---,0.00,VWS V12.07,2013-02-07 10:40:00,
2013-02-07 02:45:00,41.2,36.4,30.06,West,270,0.0,0.0,83,0.00,,---,0.00,VWS V12.07,2013-02-07 10:45:00,
2013-02-07 02:50:00,41.1,36.3,30.06,West,270,0.0,0.0,83,0.00,,---,0.00,VWS V12.07,2013-02-07 10:50:00,
2013-02-07 02:55:00,41.1,36.3,30.06,West,270,0.0,0.0,83,0.00,,---,0.00,VWS V12.07,2013-02-07 10:55:00,
2013-02-07 03:00:00,40.9,36.1,30.06,West,270,0.0,0.0,83,0.00,,---,0.00,VWS V12.07,2013-02-07 11:00:00,
2013-02-07 03:05:00,40.9,36.5,30.06,West,270,0.0,0.0,84,0.00,,---,0.00,VWS V12.07,2013-02-07 11:05:00,
2013-02-07 03:15:00,40.9,36.5,30.06,West,270,0.0,0.0,84,0.00,,---,0.00,VWS V12.07,2013-02-07 11:15:00,
2013-02-07 03:20:00,40.8,36.3,30.06,West,270,0.0,0.0,84,0.00,,---,0.00,VWS V12.07,2013-02-07 11:20:00,
2013-02-07 03:25:00,40.8,36.3,30.06,West,270,0.0,0.0,84,0.00,,---,0.00,VWS V12.07,2013-02-07 11:25:00,
2013-02-07 03:30:00,40.8,36.3,30.06,West,270,0.0,2.0,84,0.00,,---,0.00,VWS V12.07,2013-02-07 11:30:00,
2013-02-07 03:35:00,40.9,36.5,30.06,West,270,0.0,1.0,84,0.00,,---,0.00,VWS V12.07,2013-02-07 11:35:00,
2013-02-07 03:40:00,40.9,36.5,30.05,West,270,0.0,0.0,84,0.00,,---,0.00,VWS V12.07,2013-02-07 11:40:00,
2013-02-07 03:45:00,40.8,36.3,30.05,West,270,0.0,0.0,84,0.00,,---,0.00,VWS V12.07,2013-02-07 11:45:00,
2013-02-07 03:50:00,40.8,36.3,30.05,West,270,0.0,0.0,84,0.00,,---,0.00,VWS V12.07,2013-02-07 11:50:00,
2013-02-07 03:55:00,40.6,36.2,30.05,West,270,0.0,0.0,84,0.00,,---,0.00,VWS V12.07,2013-02-07 11:55:00,
2013-02-07 04:00:00,40.6,36.2,30.05,West,270,0.0,0.0,84,0.00,,---,0.00,VWS V12.07,2013-02-07 12:00:00,
2013-02-07 04:05:00,40.6,36.2,30.05,West,270,0.0,0.0,84,0.00,,---,0.00,VWS V12.07,2013-02-07 12:05:00,
2013-02-07 04:10:00,40.6,36.2,30.05,West,270,0.0,0.0,84,0.00,,---,0.00,VWS V12.07,2013-02-07 12:10:00,
2013-02-07 04:15:00,40.5,36.0,30.05,West,270,0.0,0.0,84,0.00,,---,0.00,VWS V12.07,2013-02-07 12:15:00,
2013-02-07 04:20:00,40.5,36.0,30.05,West,270,0.0,0.0,84,0.00,,---,0.00,VWS V12.07,2013-02-07 12:20:00,
2013-02-07 04:25:00,40.5,36.0,30.06,West,270,1.0,2.0,84,0.00,,---,0.00,VWS V12.07,2013-02-07 12:25:00,
2013-02-07 04:30:00,40.5,36.3,30.06,West,270,0.0,1.0,85,0.00,,---,0.00,VWS V12.07,2013-02-07 12:30:00,
2013-02-07 04:35:00,40.5,36.3,30.06,West,270,0.0,0.0,85,0.00,,---,0.00,VWS V12.07,2013-02-07 12:35:00,
2013-02-07 04:40:00,40.3,36.2,30.06,West,270,0.0,0.0,85,0.00,,---,0.00,VWS V12.07,2013-02-07 12:40:00,
2013-02-07 04:45:00,40.2,36.1,30.06,West,270,0.0,0.0,85,0.00,,---,0.00,VWS V12.07,2013-02-07 12:45:00,
2013-02-07 04:55:00,40.1,36.0,30.06,West,270,0.0,0.0,85,0.00,,---,0.00,VWS V12.07,2013-02-07 12:55:00,
2013-02-07 05:00:00,40.1,36.0,30.06,West,270,0.0,0.0,85,0.00,,---,0.00,VWS V12.07,2013-02-07 13:00:00,
2013-02-07 05:10:00,40.1,36.0,30.06,West,270,0.0,0.0,85,0.00,,---,0.00,VWS V12.07,2013-02-07 13:10:00,
2013-02-07 05:15:00,40.1,36.0,30.06,West,270,0.0,0.0,85,0.00,,---,0.00,VWS V12.07,2013-02-07 13:15:00,
2013-02-07 05:20:00,39.9,35.8,30.06,West,270,0.0,0.0,85,0.00,,---,0.00,VWS V12.07,2013-02-07 13:20:00,
2013-02-07 05:30:00,39.8,35.7,30.06,West,270,0.0,0.0,85,0.00,,---,0.00,VWS V12.07,2013-02-07 13:30:00,
2013-02-07 05:35:00,39.8,35.7,30.06,West,270,0.0,0.0,85,0.00,,---,0.00,VWS V12.07,2013-02-07 13:35:00,
2013-02-07 05:40:00,39.6,35.5,30.06,West,270,0.0,0.0,85,0.00,,---,0.00,VWS V12.07,2013-02-07 13:40:00,
2013-02-07 05:50:00,39.6,35.5,30.06,West,270,0.0,0.0,85,0.00,,---,0.00,VWS V12.07,2013-02-07 13:50:00,
2013-02-07 05:55:00,39.6,35.5,30.06,West,270,0.0,0.0,85,0.00,,---,0.00,VWS V12.07,2013-02-07 13:55:00,
2013-02-07 06:00:00,39.6,35.5,30.06,West,270,0.0,0.0,85,0.00,,---,0.00,VWS V12.07,2013-02-07 14:00:00,
2013-02-07 06:05:00,39.5,35.4,30.06,West,270,0.0,0.0,85,0.00,,---,0.00,VWS V12.07,2013-02-07 14:05:00,
2013-02-07 06:10:00,39.5,35.4,30.06,West,270,0.0,0.0,85,0.00,,---,0.00,VWS V12.07,2013-02-07 14:10:00,
2013-02-07 06:20:00,39.5,35.7,30.06,West,270,0.0,0.0,86,0.00,,---,0.00,VWS V12.07,2013-02-07 14:20:00,
2013-02-07 06:25:00,39.3,35.5,30.07,West,270,0.0,0.0,86,0.00,,---,0.00,VWS V12.07,2013-02-07 14:25:00,
2013-02-07 06:30:00,39.3,35.5,30.07,West,270,0.0,1.0,86,0.00,,---,0.00,VWS V12.07,2013-02-07 14:30:00,
2013-02-07 06:40:00,39.3,35.5,30.07,West,270,0.0,0.0,86,0.00,,---,0.00,VWS V12.07,2013-02-07 14:40:00,
2013-02-07 06:50:00,39.3,35.5,30.07,West,270,0.0,1.0,86,0.00,,---,0.00,VWS V12.07,2013-02-07 14:50:00,
2013-02-07 06:55:00,39.3,35.5,30.07,West,270,0.0,1.0,86,0.00,,---,0.00,VWS V12.07,2013-02-07 14:55:00,
2013-02-07 07:00:00,39.2,35.4,30.07,West,270,0.0,0.0,86,0.00,,---,0.00,VWS V12.07,2013-02-07 15:00:00,
2013-02-07 07:05:00,39.2,35.4,30.07,West,270,0.0,0.0,86,0.00,,---,0.00,VWS V12.07,2013-02-07 15:05:00,
2013-02-07 07:10:00,39.2,35.4,30.08,West,270,0.0,0.0,86,0.00,,---,0.00,VWS V12.07,2013-02-07 15:10:00,
2013-02-07 07:15:00,39.3,35.5,30.08,West,270,0.0,0.0,86,0.00,,---,0.00,VWS V12.07,2013-02-07 15:15:00,
2013-02-07 07:20:00,39.3,35.5,30.08,West,270,0.0,0.0,86,0.00,,---,0.00,VWS V12.07,2013-02-07 15:20:00,
2013-02-07 07:25:00,39.5,35.7,30.08,West,270,0.0,0.0,86,0.00,,---,0.00,VWS V12.07,2013-02-07 15:25:00,
2013-02-07 07:30:00,39.8,36.2,30.08,West,270,0.0,0.0,87,0.00,,---,0.00,VWS V12.07,2013-02-07 15:30:00,
2013-02-07 07:35:00,40.1,36.5,30.08,West,270,0.0,0.0,87,0.00,,---,0.00,VWS V12.07,2013-02-07 15:35:00,
2013-02-07 07:40:00,40.1,36.3,30.08,West,270,0.0,0.0,86,0.00,,---,0.00,VWS V12.07,2013-02-07 15:40:00,
2013-02-07 07:45:00,40.2,36.7,30.08,West,270,0.0,0.0,87,0.00,,---,0.00,VWS V12.07,2013-02-07 15:45:00,
2013-02-07 07:55:00,41.3,38.0,30.08,West,270,0.0,1.0,88,0.00,,---,0.00,VWS V12.07,2013-02-07 15:55:00,
2013-02-07 08:00:00,42.6,39.3,30.08,West,270,0.0,1.0,88,0.00,,---,0.00,VWS V12.07,2013-02-07 16:00:00,
2013-02-07 08:10:00,43.8,40.2,30.08,West,270,0.0,0.0,87,0.00,,---,0.00,VWS V12.07,2013-02-07 16:10:00,
2013-02-07 08:15:00,44.8,41.5,30.08,WSW,238,0.0,1.0,88,0.00,,---,0.00,VWS V12.07,2013-02-07 16:15:00,
2013-02-07 08:25:00,46.0,42.3,30.08,WSW,237,0.0,0.0,87,0.00,,---,0.00,VWS V12.07,2013-02-07 16:25:00,
2013-02-07 08:30:00,46.7,42.7,30.08,WSW,237,0.0,1.0,86,0.00,,---,0.00,VWS V12.07,2013-02-07 16:30:00,
2013-02-07 08:35:00,47.0,43.0,30.08,WSW,237,0.0,1.0,86,0.00,,---,0.00,VWS V12.07,2013-02-07 16:35:00,
2013-02-07 08:40:00,47.6,43.3,30.08,WSW,237,0.0,1.0,85,0.00,,---,0.00,VWS V12.07,2013-02-07 16:40:00,
2013-02-07 08:45:00,48.2,43.9,30.08,WSW,237,0.0,0.0,85,0.00,,---,0.00,VWS V12.07,2013-02-07 16:45:00,
2013-02-07 08:55:00,49.6,44.7,30.08,WSW,237,0.0,0.0,83,0.00,,---,0.00,VWS V12.07,2013-02-07 16:55:00,
2013-02-07 09:00:00,50.4,45.1,30.08,SW,236,2.0,2.0,82,0.00,,---,0.00,VWS V12.07,2013-02-07 17:00:00,
2013-02-07 09:10:00,52.5,46.5,30.08,SW,234,0.0,0.0,80,0.00,,---,0.00,VWS V12.07,2013-02-07 17:10:00,
2013-02-07 09:15:00,53.2,46.5,30.08,SW,234,0.0,1.0,78,0.00,,---,0.00,VWS V12.07,2013-02-07 17:15:00,
2013-02-07 09:25:00,54.8,47.4,30.08,SW,234,1.0,2.0,76,0.00,,---,0.00,VWS V12.07,2013-02-07 17:25:00,
2013-02-07 09:30:00,55.6,47.5,30.08,SW,234,0.0,4.0,74,0.00,,---,0.00,VWS V12.07,2013-02-07 17:30:00,
2013-02-07 09:35:00,56.3,48.1,30.08,SW,226,0.0,2.0,74,0.00,,---,0.00,VWS V12.07,2013-02-07 17:35:00,
2013-02-07 09:40:00,56.9,48.7,30.08,SW,226,3.0,3.0,74,0.00,,---,0.00,VWS V12.07,2013-02-07 17:40:00,
2013-02-07 09:45:00,57.0,48.8,30.08,SW,229,0.0,1.0,74,0.00,,---,0.00,VWS V12.07,2013-02-07 17:45:00,
2013-02-07 09:50:00,57.6,49.0,30.08,SW,229,1.0,2.0,73,0.00,,---,0.00,VWS V12.07,2013-02-07 17:50:00,
2013-02-07 09:55:00,58.0,48.7,30.08,SW,229,1.0,2.0,71,0.00,,---,0.00,VWS V12.07,2013-02-07 17:55:00,
2013-02-07 10:00:00,58.3,49.0,30.08,SW,229,1.0,2.0,71,0.00,,---,0.00,VWS V12.07,2013-02-07 18:00:00,
2013-02-07 10:05:00,58.3,49.0,30.08,NNW,331,1.0,4.0,71,0.00,,---,0.00,VWS V12.07,2013-02-07 18:05:00,
2013-02-07 10:10:00,59.0,48.9,30.07,WSW,249,0.0,2.0,69,0.00,,---,0.00,VWS V12.07,2013-02-07 18:10:00,
2013-02-07 10:15:00,59.3,49.1,30.07,NW,315,2.0,2.0,69,0.00,,---,0.00,VWS V12.07,2013-02-07 18:15:00,
2013-02-07 10:20:00,58.9,48.4,30.07,NNW,336,5.0,6.0,68,0.00,,---,0.00,VWS V12.07,2013-02-07 18:20:00,
2013-02-07 10:25:00,58.4,48.3,30.07,NE,44,0.0,4.0,69,0.00,,---,0.00,VWS V12.07,2013-02-07 18:25:00,
2013-02-07 10:30:00,58.4,47.1,30.07,East,101,0.0,5.0,66,0.00,,---,0.00,VWS V12.07,2013-02-07 18:30:00,
2013-02-07 10:35:00,58.3,47.0,30.07,ENE,67,0.0,4.0,66,0.00,,---,0.00,VWS V12.07,2013-02-07 18:35:00,
2013-02-07 10:40:00,58.0,47.9,30.07,NNW,339,0.0,4.0,69,0.00,,---,0.00,VWS V12.07,2013-02-07 18:40:00,
2013-02-07 10:45:00,58.4,49.0,30.07,South,172,1.0,6.0,71,0.00,,---,0.00,VWS V12.07,2013-02-07 18:45:00,
2013-02-07 10:50:00,59.6,49.4,30.07,WSW,250,4.0,6.0,69,0.00,,---,0.00,VWS V12.07,2013-02-07 18:50:00,
2013-02-07 10:55:00,59.6,49.0,30.06,SSW,196,0.0,5.0,68,0.00,,---,0.00,VWS V12.07,2013-02-07 18:55:00,
2013-02-07 11:00:00,59.6,48.6,30.06,West,265,7.0,7.0,67,0.00,,---,0.00,VWS V12.07,2013-02-07 19:00:00,
2013-02-07 11:05:00,59.9,49.3,30.06,West,264,0.0,5.0,68,0.00,,---,0.00,VWS V12.07,2013-02-07 19:05:00,
2013-02-07 11:10:00,60.2,49.2,30.06,SW,224,0.0,5.0,67,0.00,,---,0.00,VWS V12.07,2013-02-07 19:10:00,
2013-02-07 11:20:00,61.0,49.2,30.06,West,271,4.0,7.0,65,0.00,,---,0.00,VWS V12.07,2013-02-07 19:20:00,
2013-02-07 11:25:00,60.1,48.3,30.06,NNW,327,6.0,8.0,65,0.00,,---,0.00,VWS V12.07,2013-02-07 19:25:00,
2013-02-07 11:35:00,60.1,48.7,30.06,NW,306,6.0,8.0,66,0.00,,---,0.00,VWS V12.07,2013-02-07 19:35:00,
2013-02-07 11:40:00,59.8,48.8,30.06,NW,322,2.0,5.0,67,0.00,,---,0.00,VWS V12.07,2013-02-07 19:40:00,
2013-02-07 11:45:00,59.5,48.9,30.06,West,277,1.0,6.0,68,0.00,,---,0.00,VWS V12.07,2013-02-07 19:45:00,
2013-02-07 11:50:00,59.5,48.5,30.06,NW,323,7.0,11.0,67,0.00,,---,0.00,VWS V12.07,2013-02-07 19:50:00,
2013-02-07 12:00:00,58.9,48.4,30.06,North,355,1.0,8.0,68,0.00,,---,0.00,VWS V12.07,2013-02-07 20:00:00,
2013-02-07 12:05:00,59.0,48.5,30.06,WNW,285,5.0,8.0,68,0.00,,---,0.00,VWS V12.07,2013-02-07 20:05:00,
2013-02-07 12:10:00,58.9,48.4,30.05,NW,326,7.0,8.0,68,0.00,,---,0.00,VWS V12.07,2013-02-07 20:10:00,
2013-02-07 12:15:00,59.2,48.7,30.05,WSW,238,7.0,7.0,68,0.00,,---,0.00,VWS V12.07,2013-02-07 20:15:00,
2013-02-07 12:20:00,59.0,48.1,30.05,WNW,298,5.0,5.0,67,0.00,,---,0.00,VWS V12.07,2013-02-07 20:20:00,
2013-02-07 12:25:00,59.2,48.3,30.04,WNW,302,4.0,6.0,67,0.00,,---,0.00,VWS V12.07,2013-02-07 20:25:00,
2013-02-07 12:35:00,60.2,48.0,30.04,West,259,5.0,8.0,64,0.00,,---,0.00,VWS V12.07,2013-02-07 20:35:00,
2013-02-07 12:45:00,60.5,48.3,30.03,West,263,4.0,7.0,64,0.00,,---,0.00,VWS V12.07,2013-02-07 20:45:00,
2013-02-07 12:50:00,61.0,49.2,30.03,NW,313,7.0,7.0,65,0.00,,---,0.00,VWS V12.07,2013-02-07 20:50:00,
2013-02-07 12:55:00,61.0,48.3,30.03,NNW,333,5.0,10.0,63,0.00,,---,0.00,VWS V12.07,2013-02-07 20:55:00,
2013-02-07 13:00:00,60.4,48.2,30.03,NNE,19,6.0,8.0,64,0.00,,---,0.00,VWS V12.07,2013-02-07 21:00:00,
2013-02-07 13:05:00,59.6,47.8,30.03,NW,308,1.0,9.0,65,0.00,,---,0.00,VWS V12.07,2013-02-07 21:05:00,
2013-02-07 13:15:00,60.2,48.4,30.02,West,270,3.0,9.0,65,0.00,,---,0.00,VWS V12.07,2013-02-07 21:15:00,
2013-02-07 13:20:00,60.7,48.9,30.02,WSW,251,0.0,8.0,65,0.00,,---,0.00,VWS V12.07,2013-02-07 21:20:00,
2013-02-07 13:25:00,61.3,49.0,30.01,SSW,209,1.0,6.0,64,0.00,,---,0.00,VWS V12.07,2013-02-07 21:25:00,
2013-02-07 13:35:00,61.6,48.5,30.01,WSW,258,0.0,6.0,62,0.00,,---,0.00,VWS V12.07,2013-02-07 21:35:00,
2013-02-07 13:40:00,61.6,48.9,30.00,West,265,1.0,5.0,63,0.00,,---,0.00,VWS V12.07,2013-02-07 21:40:00,
2013-02-07 13:45:00,62.0,48.8,30.00,WSW,258,5.0,7.0,62,0.00,,---,0.00,VWS V12.07,2013-02-07 21:45:00,
2013-02-07 13:55:00,61.8,49.5,30.00,WSW,254,4.0,4.0,64,0.00,,---,0.00,VWS V12.07,2013-02-07 21:55:00,
2013-02-07 14:00:00,61.8,49.1,30.00,West,272,1.0,7.0,63,0.00,,---,0.00,VWS V12.07,2013-02-07 22:00:00,
2013-02-07 14:05:00,61.5,48.4,30.00,West,265,3.0,6.0,62,0.00,,---,0.00,VWS V12.07,2013-02-07 22:05:00,
2013-02-07 14:10:00,61.0,48.8,29.99,SW,223,1.0,7.0,64,0.00,,---,0.00,VWS V12.07,2013-02-07 22:10:00,
2013-02-07 14:15:00,61.5,48.4,29.99,NNW,343,7.0,7.0,62,0.00,,---,0.00,VWS V12.07,2013-02-07 22:15:00,
2013-02-07 14:20:00,60.9,48.7,29.99,NW,312,3.0,7.0,64,0.00,,---,0.00,VWS V12.07,2013-02-07 22:20:00,
2013-02-07 14:25:00,61.0,48.8,29.99,WNW,286,4.0,7.0,64,0.00,,---,0.00,VWS V12.07,2013-02-07 22:25:00,
2013-02-07 14:35:00,60.5,48.7,29.99,NW,315,1.0,5.0,65,0.00,,---,0.00,VWS V12.07,2013-02-07 22:35:00,
2013-02-07 14:40:00,60.9,49.1,29.98,WSW,258,6.0,7.0,65,0.00,,---,0.00,VWS V12.07,2013-02-07 22:40:00,
2013-02-07 14:45:00,60.4,49.0,29.98,West,259,1.0,8.0,66,0.00,,---,0.00,VWS V12.07,2013-02-07 22:45:00,
2013-02-07 14:50:00,60.4,49.0,29.98,WSW,258,5.0,8.0,66,0.00,,---,0.00,VWS V12.07,2013-02-07 22:50:00,
2013-02-07 15:00:00,59.5,48.5,29.98,NW,321,5.0,7.0,67,0.00,,---,0.00,VWS V12.07,2013-02-07 23:00:00,
2013-02-07 15:10:00,59.3,48.0,29.98,WSW,254,5.0,7.0,66,0.00,,---,0.00,VWS V12.07,2013-02-07 23:10:00,
2013-02-07 15:15:00,58.7,48.2,29.98,WSW,252,3.0,7.0,68,0.00,,---,0.00,VWS V12.07,2013-02-07 23:15:00,
2013-02-07 15:20:00,58.7,48.6,29.98,WNW,295,1.0,6.0,69,0.00,,---,0.00,VWS V12.07,2013-02-07 23:20:00,
2013-02-07 15:25:00,58.6,48.1,29.97,WNW,303,5.0,9.0,68,0.00,,---,0.00,VWS V12.07,2013-02-07 23:25:00,
2013-02-07 15:30:00,58.3,48.6,29.97,West,278,2.0,7.0,70,0.00,,---,0.00,VWS V12.07,2013-02-07 23:30:00,
2013-02-07 15:40:00,57.6,48.3,29.98,West,277,0.0,7.0,71,0.00,,---,0.00,VWS V12.07,2013-02-07 23:40:00,
2013-02-07 15:45:00,57.6,47.9,29.98,West,259,6.0,10.0,70,0.00,,---,0.00,VWS V12.07,2013-02-07 23:45:00,
2013-02-07 15:50:00,57.2,47.9,29.98,North,9,8.0,9.0,71,0.00,,---,0.00,VWS V12.07,2013-02-07 23:50:00,
2013-02-07 15:55:00,57.0,47.7,29.98,NNW,333,6.0,9.0,71,0.00,,---,0.00,VWS V12.07,2013-02-07 23:55:00,
2013-02-07 16:00:00,57.0,48.1,29.98,NNW,335,1.0,6.0,72,0.00,,---,0.00,VWS V12.07,2013-02-08 00:00:00,
2013-02-07 16:05:00,56.9,48.0,29.98,West,275,6.0,9.0,72,0.00,,---,0.00,VWS V12.07,2013-02-08 00:05:00,
2013-02-07 16:15:00,56.5,47.6,29.98,West,267,0.0,8.0,72,0.00,,---,0.00,VWS V12.07,2013-02-08 00:15:00,
2013-02-07 16:20:00,56.3,47.4,29.98,NNE,19,7.0,9.0,72,0.00,,---,0.00,VWS V12.07,2013-02-08 00:20:00,
2013-02-07 16:25:00,56.3,47.4,29.99,NW,325,8.0,10.0,72,0.00,,---,0.00,VWS V12.07,2013-02-08 00:25:00,
2013-02-07 16:35:00,56.0,47.1,29.99,NW,324,8.0,10.0,72,0.00,,---,0.00,VWS V12.07,2013-02-08 00:35:00,
2013-02-07 16:40:00,55.9,47.0,29.99,West,266,5.0,11.0,72,0.00,,---,0.00,VWS V12.07,2013-02-08 00:40:00,
2013-02-07 16:50:00,55.7,46.8,29.99,WNW,290,2.0,6.0,72,0.00,,---,0.00,VWS V12.07,2013-02-08 00:50:00,
2013-02-07 16:55:00,55.7,46.8,29.99,WNW,283,5.0,9.0,72,0.00,,---,0.00,VWS V12.07,2013-02-08 00:55:00,
2013-02-07 17:05:00,55.6,46.7,29.99,SW,226,6.0,7.0,72,0.00,,---,0.00,VWS V12.07,2013-02-08 01:05:00,
2013-02-07 17:10:00,55.6,46.7,29.99,WNW,287,1.0,7.0,72,0.00,,---,0.00,VWS V12.07,2013-02-08 01:10:00,
2013-02-07 17:15:00,55.4,46.2,29.99,NW,306,2.0,7.0,71,0.00,,---,0.00,VWS V12.07,2013-02-08 01:15:00,
2013-02-07 17:20:00,55.4,46.2,29.99,NNW,333,5.0,7.0,71,0.00,,---,0.00,VWS V12.07,2013-02-08 01:20:00,
2013-02-07 17:25:00,55.4,46.2,29.99,NW,315,0.0,6.0,71,0.00,,---,0.00,VWS V12.07,2013-02-08 01:25:00,
2013-02-07 17:30:00,55.3,46.1,29.99,West,262,1.0,7.0,71,0.00,,---,0.00,VWS V12.07,2013-02-08 01:30:00,
2013-02-07 17:35:00,55.3,46.1,29.99,WNW,284,3.0,6.0,71,0.00,,---,0.00,VWS V12.07,2013-02-08 01:35:00,
2013-02-07 17:40:00,55.3,46.1,29.99,NNW,348,5.0,6.0,71,0.00,,---,0.00,VWS V12.07,2013-02-08 01:40:00,
2013-02-07 17:45:00,55.1,45.9,29.99,West,268,0.0,5.0,71,0.00,,---,0.00,VWS V12.07,2013-02-08 01:45:00,
2013-02-07 17:50:00,55.1,45.9,29.99,WSW,252,1.0,5.0,71,0.00,,---,0.00,VWS V12.07,2013-02-08 01:50:00,
2013-02-07 17:55:00,55.1,45.9,29.98,WSW,250,1.0,2.0,71,0.00,,---,0.00,VWS V12.07,2013-02-08 01:55:00,
2013-02-07 18:00:00,55.3,46.1,29.98,WSW,246,5.0,6.0,71,0.00,,---,0.00,VWS V12.07,2013-02-08 02:00:00,
2013-02-07 18:05:00,55.1,45.9,29.98,West,259,4.0,6.0,71,0.00,,---,0.00,VWS V12.07,2013-02-08 02:05:00,
2013-02-07 18:15:00,55.1,45.9,29.99,WSW,251,0.0,6.0,71,0.00,,---,0.00,VWS V12.07,2013-02-08 02:15:00,
2013-02-07 18:25:00,55.0,45.8,29.99,NW,319,0.0,5.0,71,0.00,,---,0.00,VWS V12.07,2013-02-08 02:25:00,
2013-02-07 18:30:00,54.8,45.6,29.99,West,263,2.0,5.0,71,0.00,,---,0.00,VWS V12.07,2013-02-08 02:30:00,
2013-02-07 18:35:00,54.8,45.6,29.99,WSW,241,3.0,4.0,71,0.00,,---,0.00,VWS V12.07,2013-02-08 02:35:00,
2013-02-07 18:40:00,54.8,45.6,29.99,WSW,252,1.0,7.0,71,0.00,,---,0.00,VWS V12.07,2013-02-08 02:40:00,
2013-02-07 18:45:00,54.7,45.5,29.99,West,263,2.0,5.0,71,0.00,,---,0.00,VWS V12.07,2013-02-08 02:45:00,
2013-02-07 18:50:00,54.7,45.5,29.99,WSW,246,1.0,1.0,71,0.00,,---,0.00,VWS V12.07,2013-02-08 02:50:00,
2013-02-07 18:55:00,54.7,45.1,29.99,WSW,238,1.0,4.0,70,0.00,,---,0.00,VWS V12.07,2013-02-08 02:55:00,
2013-02-07 19:00:00,54.5,44.9,29.99,WSW,238,0.0,1.0,70,0.00,,---,0.00,VWS V12.07,2013-02-08 03:00:00,
2013-02-07 19:05:00,54.4,44.8,29.99,WSW,238,0.0,2.0,70,0.00,,---,0.00,VWS V12.07,2013-02-08 03:05:00,
2013-02-07 19:10:00,54.4,44.5,29.99,WSW,238,0.0,1.0,69,0.00,,---,0.00,VWS V12.07,2013-02-08 03:10:00,
2013-02-07 19:15:00,54.4,44.5,29.99,WSW,238,0.0,0.0,69,0.00,,---,0.00,VWS V12.07,2013-02-08 03:15:00,
2013-02-07 19:20:00,54.2,44.3,29.99,WSW,238,0.0,1.0,69,0.00,,---,0.00,VWS V12.07,2013-02-08 03:20:00,
2013-02-07 19:25:00,54.2,43.9,29.98,WSW,238,0.0,0.0,68,0.00,,---,0.00,VWS V12.07,2013-02-08 03:25:00,
2013-02-07 19:30:00,54.2,43.9,29.98,WSW,238,0.0,2.0,68,0.00,,---,0.00,VWS V12.07,2013-02-08 03:30:00,
2013-02-07 19:35:00,54.2,43.9,29.98,WSW,238,0.0,2.0,68,0.00,,---,0.00,VWS V12.07,2013-02-08 03:35:00,
2013-02-07 19:40:00,54.1,43.4,29.97,WSW,238,0.0,2.0,67,0.00,,---,0.00,VWS V12.07,2013-02-08 03:40:00,
2013-02-07 19:45:00,54.1,43.4,29.97,WSW,238,0.0,2.0,67,0.00,,---,0.00,VWS V12.07,2013-02-08 03:45:00,
2013-02-07 19:50:00,54.1,43.4,29.97,WSW,238,0.0,0.0,67,0.00,,---,0.00,VWS V12.07,2013-02-08 03:50:00,
2013-02-07 19:55:00,53.9,42.8,29.97,WSW,238,0.0,1.0,66,0.00,,---,0.00,VWS V12.07,2013-02-08 03:55:00,
2013-02-07 20:05:00,53.6,42.5,29.97,SW,217,0.0,0.0,66,0.00,,---,0.00,VWS V12.07,2013-02-08 04:05:00,
2013-02-07 20:10:00,53.5,42.4,29.97,SW,217,0.0,1.0,66,0.00,,---,0.00,VWS V12.07,2013-02-08 04:10:00,
2013-02-07 20:15:00,53.3,42.2,29.97,SW,217,0.0,0.0,66,0.00,,---,0.00,VWS V12.07,2013-02-08 04:15:00,
2013-02-07 20:20:00,53.2,42.2,29.97,SW,217,0.0,1.0,66,0.00,,---,0.00,VWS V12.07,2013-02-08 04:20:00,
2013-02-07 20:25:00,53.2,42.2,29.97,SW,217,0.0,0.0,66,0.00,,---,0.00,VWS V12.07,2013-02-08 04:25:00,
2013-02-07 20:30:00,53.1,42.5,29.97,SW,217,0.0,0.0,67,0.00,,---,0.00,VWS V12.07,2013-02-08 04:30:00,
2013-02-07 20:35:00,52.9,42.3,29.97,SW,217,0.0,0.0,67,0.00,,---,0.00,VWS V12.07,2013-02-08 04:35:00,
2013-02-07 20:40:00,52.9,42.3,29.97,SW,217,0.0,0.0,67,0.00,,---,0.00,VWS V12.07,2013-02-08 04:40:00,
2013-02-07 20:45:00,52.8,42.2,29.97,SW,217,0.0,0.0,67,0.00,,---,0.00,VWS V12.07,2013-02-08 04:45:00,
2013-02-07 20:50:00,52.8,42.2,29.97,SW,217,0.0,0.0,67,0.00,,---,0.00,VWS V12.07,2013-02-08 04:50:00,
2013-02-07 20:55:00,52.8,42.2,29.97,SW,217,0.0,0.0,67,0.00,,---,0.00,VWS V12.07,2013-02-08 04:55:00,
2013-02-07 21:00:00,52.6,42.0,29.97,SW,217,0.0,0.0,67,0.00,,---,0.00,VWS V12.07,2013-02-08 05:00:00,
2013-02-07 21:05:00,52.6,42.3,29.97,SW,217,0.0,0.0,68,0.00,,---,0.00,VWS V12.07,2013-02-08 05:05:00,
2013-02-07 21:10:00,52.6,42.3,29.97,SW,217,0.0,0.0,68,0.00,,---,0.00,VWS V12.07,2013-02-08 05:10:00,
2013-02-07 21:15:00,52.6,42.3,29.97,SW,217,0.0,0.0,68,0.00,,---,0.00,VWS V12.07,2013-02-08 05:15:00,
2013-02-07 21:20:00,52.8,42.5,29.97,SW,217,0.0,2.0,68,0.00,,---,0.00,VWS V12.07,2013-02-08 05:20:00,
2013-02-07 21:30:00,52.9,42.6,29.98,SW,217,0.0,0.0,68,0.00,,---,0.00,VWS V12.07,2013-02-08 05:30:00,
2013-02-07 21:35:00,52.9,43.0,29.98,SW,217,0.0,1.0,69,0.00,,---,0.00,VWS V12.07,2013-02-08 05:35:00,
2013-02-07 21:40:00,53.2,43.3,29.98,SW,217,0.0,1.0,69,0.00,,---,0.00,VWS V12.07,2013-02-08 05:40:00,
2013-02-07 21:45:00,53.3,43.4,29.98,SW,217,0.0,1.0,69,0.00,,---,0.00,VWS V12.07,2013-02-08 05:45:00,
2013-02-07 21:50:00,53.5,43.6,29.98,SW,217,0.0,2.0,69,0.00,,---,0.00,VWS V12.07,2013-02-08 05:50:00,
2013-02-07 22:00:00,53.6,44.1,29.97,SW,217,0.0,1.0,70,0.00,,---,0.00,VWS V12.07,2013-02-08 06:00:00,
2013-02-07 22:05:00,53.6,43.7,29.97,SW,217,0.0,0.0,69,0.00,,---,0.00,VWS V12.07,2013-02-08 06:05:00,
2013-02-07 22:10:00,53.6,44.1,29.97,SW,217,0.0,0.0,70,0.00,,---,0.00,VWS V12.07,2013-02-08 06:10:00,
2013-02-07 22:15:00,53.8,44.3,29.97,NW,314,1.0,5.0,70,0.00,,---,0.00,VWS V12.07,2013-02-08 06:15:00,
2013-02-07 22:25:00,53.8,44.3,29.97,NNW,335,1.0,2.0,70,0.00,,---,0.00,VWS V12.07,2013-02-08 06:25:00,
2013-02-07 22:35:00,53.8,44.3,29.97,NNW,335,0.0,0.0,70,0.00,,---,0.00,VWS V12.07,2013-02-08 06:35:00,
2013-02-07 22:40:00,53.8,44.3,29.97,NNW,335,0.0,0.0,70,0.00,,---,0.00,VWS V12.07,2013-02-08 06:40:00,
2013-02-07 22:45:00,53.6,44.1,29.97,NNW,335,0.0,0.0,70,0.00,,---,0.00,VWS V12.07,2013-02-08 06:45:00,
2013-02-07 22:50:00,53.6,44.1,29.97,NNW,335,0.0,0.0,70,0.00,,---,0.00,VWS V12.07,2013-02-08 06:50:00,
2013-02-07 22:55:00,53.5,44.0,29.97,NNW,335,0.0,1.0,70,0.00,,---,0.00,VWS V12.07,2013-02-08 06:55:00,
2013-02-07 23:05:00,53.3,43.8,29.97,NNW,335,0.0,1.0,70,0.00,,---,0.00,VWS V12.07,2013-02-08 07:05:00,
2013-02-07 23:10:00,53.2,43.7,29.97,NNW,335,0.0,0.0,70,0.00,,---,0.00,VWS V12.07,2013-02-08 07:10:00,
2013-02-07 23:15:00,53.1,43.6,29.97,NNW,335,0.0,0.0,70,0.00,,---,0.00,VWS V12.07,2013-02-08 07:15:00,
2013-02-07 23:20:00,53.1,43.6,29.97,NNW,335,0.0,0.0,70,0.00,,---,0.00,VWS V12.07,2013-02-08 07:20:00,
2013-02-07 23:30:00,52.8,43.3,29.97,NNW,335,0.0,0.0,70,0.00,,---,0.00,VWS V12.07,2013-02-08 07:30:00,
2013-02-07 23:35:00,52.8,43.3,29.97,NNW,335,0.0,0.0,70,0.00,,---,0.00,VWS V12.07,2013-02-08 07:35:00,
2013-02-07 23:40:00,52.6,43.1,29.97,NNW,335,0.0,0.0,70,0.00,,---,0.00,VWS V12.07,2013-02-08 07:40:00,
2013-02-07 23:50:00,52.5,43.4,29.97,NNW,335,0.0,0.0,71,0.00,,---,0.00,VWS V12.07,2013-02-08 07:50:00,
2013-02-07 23:55:00,52.5,43.4,29.97,NNW,335,0.0,0.0,71,0.00,,---,0.00,VWS V12.07,2013-02-08 07:55:00,